Terminal Aerodrome Forecast
Issued by NWS Tuscon, AZ

Home | Current Version | Previous Version | Text Only | Print | Product List | Glossary On
Versions: 1 2 3 4 5 6 7 8 9 10 11 12 13 14 15 16 17 18 19 20 21 22 23
000
FTUS45 KTWC 051137
TAFDUG
TAF
KDUG 051137Z 0512/0612 26005KT P6SM -RA SCT015 OVC100
      TEMPO 0512/0514 5SM -RA BKN010
     FM051700 12005KT P6SM SCT025 BKN100
     FM052300 28010KT P6SM VCSH SCT070 OVC150
     FM060300 29012KT P6SM SCT090 BKN150=

USA.gov is the U.S. government's official web portal to all federal, state and local government web resources and services.